sensor_id;sensor_type;location;lat;lon;timestamp;pressure;altitude;pressure_sealevel;temperature;humidity
14966;BME280;7577;45.226;5.798;2023-04-06T00:02:11;99349.12;;;21.15;33.32
14966;BME280;7577;45.226;5.798;2023-04-06T00:04:41;99355.78;;;21.14;33.32
14966;BME280;7577;45.226;5.798;2023-04-06T00:07:11;99355.78;;;21.14;33.29
14966;BME280;7577;45.226;5.798;2023-04-06T00:09:41;99352.77;;;21.13;33.33
14966;BME280;7577;45.226;5.798;2023-04-06T00:12:11;99358.31;;;21.13;33.33
14966;BME280;7577;45.226;5.798;2023-04-06T00:14:41;99357.83;;;21.11;33.35
14966;BME280;7577;45.226;5.798;2023-04-06T00:17:12;99359.78;;;21.11;33.35
14966;BME280;7577;45.226;5.798;2023-04-06T00:19:42;99362.31;;;21.10;33.35
14966;BME280;7577;45.226;5.798;2023-04-06T00:22:12;99359.54;;;21.10;33.35
14966;BME280;7577;45.226;5.798;2023-04-06T00:27:21;99356.18;;;21.10;33.32
14966;BME280;7577;45.226;5.798;2023-04-06T00:29:51;99358.23;;;21.07;33.35
14966;BME280;7577;45.226;5.798;2023-04-06T00:34:59;99352.69;;;21.07;33.34
14966;BME280;7577;45.226;5.798;2023-04-06T00:37:29;99359.70;;;21.05;33.38
14966;BME280;7577;45.226;5.798;2023-04-06T00:40:00;99355.54;;;21.05;33.38
14966;BME280;7577;45.226;5.798;2023-04-06T00:42:30;99352.50;;;21.04;33.37
14966;BME280;7577;45.226;5.798;2023-04-06T00:45:01;99353.64;;;21.03;33.38
14966;BME280;7577;45.226;5.798;2023-04-06T00:47:32;99354.23;;;21.02;33.36
14966;BME280;7577;45.226;5.798;2023-04-06T00:50:03;99349.49;;;21.03;33.38
14966;BME280;7577;45.226;5.798;2023-04-06T00:52:34;99347.55;;;21.03;33.39
14966;BME280;7577;45.226;5.798;2023-04-06T00:55:05;99347.87;;;21.02;33.38
14966;BME280;7577;45.226;5.798;2023-04-06T00:57:36;99349.57;;;21.00;33.37
14966;BME280;7577;45.226;5.798;2023-04-06T01:00:08;99348.77;;;21.00;33.41
14966;BME280;7577;45.226;5.798;2023-04-06T01:02:39;99345.73;;;20.99;33.39
14966;BME280;7577;45.226;5.798;2023-04-06T01:07:49;99340.47;;;21.00;33.42
14966;BME280;7577;45.226;5.798;2023-04-06T01:10:27;99341.90;;;20.97;33.42
14966;BME280;7577;45.226;5.798;2023-04-06T01:15:36;99327.57;;;20.95;33.43
14966;BME280;7577;45.226;5.798;2023-04-06T01:18:09;99332.04;;;20.94;33.44
14966;BME280;7577;45.226;5.798;2023-04-06T01:20:39;99332.63;;;20.93;33.43
14966;BME280;7577;45.226;5.798;2023-04-06T01:25:53;99327.65;;;20.93;33.44
14966;BME280;7577;45.226;5.798;2023-04-06T01:28:23;99328.52;;;20.91;33.46
14966;BME280;7577;45.226;5.798;2023-04-06T01:33:31;99324.05;;;20.92;33.44
14966;BME280;7577;45.226;5.798;2023-04-06T01:38:39;99324.05;;;20.92;33.45
14966;BME280;7577;45.226;5.798;2023-04-06T01:41:10;99333.55;;;20.89;33.46
14966;BME280;7577;45.226;5.798;2023-04-06T01:46:18;99330.23;;;20.89;33.45
14966;BME280;7577;45.226;5.798;2023-04-06T01:51:26;99325.56;;;20.87;33.49
14966;BME280;7577;45.226;5.798;2023-04-06T01:53:56;99324.49;;;20.86;33.49
14966;BME280;7577;45.226;5.798;2023-04-06T01:56:26;99328.65;;;20.86;33.46
14966;BME280;7577;45.226;5.798;2023-04-06T01:58:56;99322.63;;;20.84;33.45
14966;BME280;7577;45.226;5.798;2023-04-06T02:01:26;99322.39;;;20.83;33.46
14966;BME280;7577;45.226;5.798;2023-04-06T02:06:34;99323.19;;;20.83;33.45
14966;BME280;7577;45.226;5.798;2023-04-06T02:09:04;99331.58;;;20.81;33.49
14966;BME280;7577;45.226;5.798;2023-04-06T02:11:34;99332.16;;;20.80;33.50
14966;BME280;7577;45.226;5.798;2023-04-06T02:14:04;99336.31;;;20.80;33.48
14966;BME280;7577;45.226;5.798;2023-04-06T02:16:34;99334.93;;;20.80;33.51
14966;BME280;7577;45.226;5.798;2023-04-06T02:21:42;99330.77;;;20.80;33.51
14966;BME280;7577;45.226;5.798;2023-04-06T02:24:12;99342.17;;;20.79;33.53
14966;BME280;7577;45.226;5.798;2023-04-06T02:26:42;99336.05;;;20.79;33.52
14966;BME280;7577;45.226;5.798;2023-04-06T02:29:13;99333.86;;;20.79;33.53
14966;BME280;7577;45.226;5.798;2023-04-06T02:34:21;99331.09;;;20.79;33.52
14966;BME280;7577;45.226;5.798;2023-04-06T02:36:52;99332.28;;;20.75;33.53
14966;BME280;7577;45.226;5.798;2023-04-06T02:39:22;99333.94;;;20.76;33.54
14966;BME280;7577;45.226;5.798;2023-04-06T02:41:52;99330.34;;;20.76;33.52
14966;BME280;7577;45.226;5.798;2023-04-06T02:44:22;99330.34;;;20.76;33.52
14966;BME280;7577;45.226;5.798;2023-04-06T02:46:52;99330.10;;;20.75;33.52
14966;BME280;7577;45.226;5.798;2023-04-06T02:49:22;99332.05;;;20.74;33.54
14966;BME280;7577;45.226;5.798;2023-04-06T02:51:52;99334.02;;;20.74;33.51
14966;BME280;7577;45.226;5.798;2023-04-06T02:57:00;99333.67;;;20.75;33.51
14966;BME280;7577;45.226;5.798;2023-04-06T03:02:11;99331.56;;;20.72;33.52
14966;BME280;7577;45.226;5.798;2023-04-06T03:04:41;99337.17;;;20.70;33.52
14966;BME280;7577;45.226;5.798;2023-04-06T03:07:11;99334.97;;;20.69;33.52
14966;BME280;7577;45.226;5.798;2023-04-06T03:09:41;99341.06;;;20.69;33.55
14966;BME280;7577;45.226;5.798;2023-04-06T03:12:11;99334.73;;;20.68;33.55
14966;BME280;7577;45.226;5.798;2023-04-06T03:14:41;99337.73;;;20.69;33.53
14966;BME280;7577;45.226;5.798;2023-04-06T03:17:11;99334.48;;;20.67;33.52
14966;BME280;7577;45.226;5.798;2023-04-06T03:19:41;99336.98;;;20.66;33.54
14966;BME280;7577;45.226;5.798;2023-04-06T03:22:12;99340.34;;;20.66;33.54
14966;BME280;7577;45.226;5.798;2023-04-06T03:27:22;99336.42;;;20.67;33.56
14966;BME280;7577;45.226;5.798;2023-04-06T03:32:30;99338.37;;;20.66;33.55
14966;BME280;7577;45.226;5.798;2023-04-06T03:35:00;99339.58;;;20.63;33.59
14966;BME280;7577;45.226;5.798;2023-04-06T03:37:30;99342.91;;;20.62;33.60
14966;BME280;7577;45.226;5.798;2023-04-06T03:40:00;99345.12;;;20.63;33.58
14966;BME280;7577;45.226;5.798;2023-04-06T03:45:11;99340.73;;;20.62;33.60
14966;BME280;7577;45.226;5.798;2023-04-06T03:47:42;99344.95;;;20.59;33.60
14966;BME280;7577;45.226;5.798;2023-04-06T03:50:13;99344.36;;;20.60;33.58
14966;BME280;7577;45.226;5.798;2023-04-06T03:52:43;99342.19;;;20.59;33.58
14966;BME280;7577;45.226;5.798;2023-04-06T03:55:13;99339.17;;;20.58;33.58
14966;BME280;7577;45.226;5.798;2023-04-06T03:57:43;99339.73;;;20.58;33.58
14966;BME280;7577;45.226;5.798;2023-04-06T04:00:15;99347.20;;;20.57;33.61
14966;BME280;7577;45.226;5.798;2023-04-06T04:02:45;99349.42;;;20.58;33.59
14966;BME280;7577;45.226;5.798;2023-04-06T04:05:16;99352.75;;;20.57;33.62
14966;BME280;7577;45.226;5.798;2023-04-06T04:07:46;99351.36;;;20.57;33.62
14966;BME280;7577;45.226;5.798;2023-04-06T04:10:17;99352.19;;;20.58;33.61
14966;BME280;7577;45.226;5.798;2023-04-06T04:15:24;99354.64;;;20.59;33.61
14966;BME280;7577;45.226;5.798;2023-04-06T04:17:55;99358.55;;;20.58;33.63
14966;BME280;7577;45.226;5.798;2023-04-06T04:20:25;99364.64;;;20.58;33.63
14966;BME280;7577;45.226;5.798;2023-04-06T04:25:34;99367.82;;;20.62;33.63
14966;BME280;7577;45.226;5.798;2023-04-06T04:28:05;99371.80;;;20.59;33.66
14966;BME280;7577;45.226;5.798;2023-04-06T04:30:36;99374.26;;;20.60;33.68
14966;BME280;7577;45.226;5.798;2023-04-06T04:33:06;99380.34;;;20.60;33.69
14966;BME280;7577;45.226;5.798;2023-04-06T04:35:37;99382.25;;;20.62;33.69
14966;BME280;7577;45.226;5.798;2023-04-06T04:40:47;99389.34;;;20.65;33.68
14966;BME280;7577;45.226;5.798;2023-04-06T04:43:18;99385.81;;;20.62;33.72
14966;BME280;7577;45.226;5.798;2023-04-06T04:48:27;99388.70;;;20.68;33.67
14966;BME280;7577;45.226;5.798;2023-04-06T04:50:57;99384.05;;;20.66;33.74
14966;BME280;7577;45.226;5.798;2023-04-06T04:53:27;99389.85;;;20.67;33.50
14966;BME280;7577;45.226;5.798;2023-04-06T04:55:57;99393.25;;;20.64;33.72
14966;BME280;7577;45.226;5.798;2023-04-06T04:58:28;99398.70;;;20.67;33.64
14966;BME280;7577;45.226;5.798;2023-04-06T05:03:38;99400.92;;;20.67;33.61
14966;BME280;7577;45.226;5.798;2023-04-06T05:06:08;99406.19;;;20.66;33.46
14966;BME280;7577;45.226;5.798;2023-04-06T05:08:40;99405.95;;;20.65;33.08
14966;BME280;7577;45.226;5.798;2023-04-06T05:11:11;99408.47;;;20.64;33.14
14966;BME280;7577;45.226;5.798;2023-04-06T05:16:19;99408.47;;;20.64;33.35
14966;BME280;7577;45.226;5.798;2023-04-06T05:18:49;99422.00;;;20.66;33.11
14966;BME280;7577;45.226;5.798;2023-04-06T05:21:20;99422.07;;;20.63;33.55
14966;BME280;7577;45.226;5.798;2023-04-06T05:26:30;99427.39;;;20.71;34.02
14966;BME280;7577;45.226;5.798;2023-04-06T05:29:01;99424.38;;;20.70;34.13
14966;BME280;7577;45.226;5.798;2023-04-06T05:31:32;99425.45;;;20.71;34.99
14966;BME280;7577;45.226;5.798;2023-04-06T05:34:02;99426.48;;;20.73;34.77
14966;BME280;7577;45.226;5.798;2023-04-06T05:36:32;99431.78;;;20.72;34.90
14966;BME280;7577;45.226;5.798;2023-04-06T05:39:02;99429.53;;;20.74;35.02
14966;BME280;7577;45.226;5.798;2023-04-06T05:41:32;99430.92;;;20.74;34.85
14966;BME280;7577;45.226;5.798;2023-04-06T05:46:40;99435.48;;;20.78;34.77
14966;BME280;7577;45.226;5.798;2023-04-06T05:51:48;99434.09;;;20.78;34.68
14966;BME280;7577;45.226;5.798;2023-04-06T05:54:18;99444.69;;;20.76;34.59
14966;BME280;7577;45.226;5.798;2023-04-06T05:56:48;99440.27;;;20.75;34.70
14966;BME280;7577;45.226;5.798;2023-04-06T05:59:18;99434.73;;;20.75;34.69
14966;BME280;7577;45.226;5.798;2023-04-06T06:01:49;99435.00;;;20.76;34.75
14966;BME280;7577;45.226;5.798;2023-04-06T06:04:19;99440.78;;;20.77;34.79
14966;BME280;7577;45.226;5.798;2023-04-06T06:06:49;99447.87;;;20.81;35.03
14966;BME280;7577;45.226;5.798;2023-04-06T06:09:20;99448.04;;;20.84;35.20
14966;BME280;7577;45.226;5.798;2023-04-06T06:11:50;99444.87;;;20.88;35.31
14966;BME280;7577;45.226;5.798;2023-04-06T06:14:21;99445.11;;;20.92;35.33
14966;BME280;7577;45.226;5.798;2023-04-06T06:16:51;99442.44;;;20.98;35.46
14966;BME280;7577;45.226;5.798;2023-04-06T06:19:21;99447.03;;;21.02;35.55
14966;BME280;7577;45.226;5.798;2023-04-06T06:24:32;99440.94;;;21.11;35.52
14966;BME280;7577;45.226;5.798;2023-04-06T06:27:02;99441.19;;;21.12;35.57
14966;BME280;7577;45.226;5.798;2023-04-06T06:29:32;99441.11;;;21.15;35.53
14966;BME280;7577;45.226;5.798;2023-04-06T06:32:03;99439.09;;;21.18;35.57
14966;BME280;7577;45.226;5.798;2023-04-06T06:34:33;99443.97;;;21.21;35.44
14966;BME280;7577;45.226;5.798;2023-04-06T06:39:41;99436.01;;;21.28;35.40
14966;BME280;7577;45.226;5.798;2023-04-06T06:42:12;99436.84;;;21.28;35.37
14966;BME280;7577;45.226;5.798;2023-04-06T06:44:42;99438.70;;;21.30;35.41
14966;BME280;7577;45.226;5.798;2023-04-06T06:47:12;99432.02;;;21.31;35.32
14966;BME280;7577;45.226;5.798;2023-04-06T06:49:42;99430.31;;;21.33;35.26
14966;BME280;7577;45.226;5.798;2023-04-06T06:52:12;99429.75;;;21.33;35.19
14966;BME280;7577;45.226;5.798;2023-04-06T06:54:42;99434.39;;;21.35;35.17
14966;BME280;7577;45.226;5.798;2023-04-06T06:57:13;99435.22;;;21.36;35.14
14966;BME280;7577;45.226;5.798;2023-04-06T06:59:42;99431.53;;;21.38;35.09
14966;BME280;7577;45.226;5.798;2023-04-06T07:02:12;99425.67;;;21.39;35.13
14966;BME280;7577;45.226;5.798;2023-04-06T07:04:43;99428.69;;;21.40;34.98
14966;BME280;7577;45.226;5.798;2023-04-06T07:09:50;99424.95;;;21.45;34.90
14966;BME280;7577;45.226;5.798;2023-04-06T07:14:58;99427.89;;;21.48;35.31
14966;BME280;7577;45.226;5.798;2023-04-06T07:20:08;99428.39;;;21.50;35.24
14966;BME280;7577;45.226;5.798;2023-04-06T07:22:38;99426.73;;;21.49;35.20
14966;BME280;7577;45.226;5.798;2023-04-06T07:27:47;99420.00;;;21.53;35.40
14966;BME280;7577;45.226;5.798;2023-04-06T07:32:56;99419.57;;;21.48;35.27
14966;BME280;7577;45.226;5.798;2023-04-06T07:38:07;99409.88;;;21.48;35.21
14966;BME280;7577;45.226;5.798;2023-04-06T07:40:37;99419.57;;;21.48;35.05
14966;BME280;7577;45.226;5.798;2023-04-06T07:45:45;99410.62;;;21.51;34.91
14966;BME280;7577;45.226;5.798;2023-04-06T07:51:01;99418.11;;;21.51;34.81
14966;BME280;7577;45.226;5.798;2023-04-06T07:53:32;99415.41;;;21.48;34.69
14966;BME280;7577;45.226;5.798;2023-04-06T07:56:02;99420.16;;;21.48;34.66
14966;BME280;7577;45.226;5.798;2023-04-06T07:58:32;99420.21;;;21.45;34.78
14966;BME280;7577;45.226;5.798;2023-04-06T08:01:03;99417.44;;;21.45;34.67
14966;BME280;7577;45.226;5.798;2023-04-06T08:06:13;99419.73;;;21.43;34.77
14966;BME280;7577;45.226;5.798;2023-04-06T08:08:43;99426.74;;;21.41;34.78
14966;BME280;7577;45.226;5.798;2023-04-06T08:11:13;99424.84;;;21.39;34.83
14966;BME280;7577;45.226;5.798;2023-04-06T08:13:43;99424.29;;;21.39;34.73
14966;BME280;7577;45.226;5.798;2023-04-06T08:16:14;99425.67;;;21.39;34.82
14966;BME280;7577;45.226;5.798;2023-04-06T08:18:44;99418.27;;;21.37;34.80
14966;BME280;7577;45.226;5.798;2023-04-06T08:21:14;99421.59;;;21.37;34.78
14966;BME280;7577;45.226;5.798;2023-04-06T08:23:45;99419.97;;;21.36;34.79
14966;BME280;7577;45.226;5.798;2023-04-06T08:28:53;99417.36;;;21.39;34.66
14966;BME280;7577;45.226;5.798;2023-04-06T08:31:23;99422.34;;;21.40;34.56
14966;BME280;7577;45.226;5.798;2023-04-06T08:33:55;99423.97;;;21.41;34.54
14966;BME280;7577;45.226;5.798;2023-04-06T08:36:25;99427.81;;;21.42;34.55
14966;BME280;7577;45.226;5.798;2023-04-06T08:38:55;99423.33;;;21.44;34.33
14966;BME280;7577;45.226;5.798;2023-04-06T08:44:04;99417.62;;;21.49;34.33
14966;BME280;7577;45.226;5.798;2023-04-06T08:46:34;99417.39;;;21.48;34.27
14966;BME280;7577;45.226;5.798;2023-04-06T08:49:04;99418.19;;;21.48;34.29
14966;BME280;7577;45.226;5.798;2023-04-06T08:51:36;99416.80;;;21.48;34.19
14966;BME280;7577;45.226;5.798;2023-04-06T08:54:07;99415.09;;;21.50;34.02
14966;BME280;7577;45.226;5.798;2023-04-06T08:56:39;99419.73;;;21.52;33.98
14966;BME280;7577;45.226;5.798;2023-04-06T08:59:10;99417.78;;;21.52;33.79
14966;BME280;7577;45.226;5.798;2023-04-06T09:01:41;99417.78;;;21.52;33.89
14966;BME280;7577;45.226;5.798;2023-04-06T09:04:12;99418.86;;;21.54;33.82
14966;BME280;7577;45.226;5.798;2023-04-06T09:06:42;99414.70;;;21.54;33.85
14966;BME280;7577;45.226;5.798;2023-04-06T09:09:13;99409.70;;;21.53;33.77
14966;BME280;7577;45.226;5.798;2023-04-06T09:11:45;99412.72;;;21.54;33.80
14966;BME280;7577;45.226;5.798;2023-04-06T09:14:16;99410.22;;;21.55;33.77
14966;BME280;7577;45.226;5.798;2023-04-06T09:16:47;99414.61;;;21.56;33.78
14966;BME280;7577;45.226;5.798;2023-04-06T09:19:18;99407.92;;;21.57;33.72
14966;BME280;7577;45.226;5.798;2023-04-06T09:21:49;99411.76;;;21.59;33.72
14966;BME280;7577;45.226;5.798;2023-04-06T09:24:19;99408.67;;;21.60;33.64
14966;BME280;7577;45.226;5.798;2023-04-06T09:26:51;99402.80;;;21.62;33.57
14966;BME280;7577;45.226;5.798;2023-04-06T09:29:25;99400.03;;;21.62;33.53
14966;BME280;7577;45.226;5.798;2023-04-06T09:32:04;99403.28;;;21.64;33.51
14966;BME280;7577;45.226;5.798;2023-04-06T09:34:36;99399.36;;;21.65;33.51
14966;BME280;7577;45.226;5.798;2023-04-06T09:37:17;99397.65;;;21.66;33.32
14966;BME280;7577;45.226;5.798;2023-04-06T09:39:48;99397.56;;;21.69;33.40
14966;BME280;7577;45.226;5.798;2023-04-06T09:42:25;99397.03;;;21.69;33.32
14966;BME280;7577;45.226;5.798;2023-04-06T09:44:56;99399.81;;;21.69;33.36
14966;BME280;7577;45.226;5.798;2023-04-06T09:50:05;99394.41;;;21.73;33.13
14966;BME280;7577;45.226;5.798;2023-04-06T09:52:40;99391.64;;;21.73;33.18
14966;BME280;7577;45.226;5.798;2023-04-06T09:55:11;99392.47;;;21.73;33.21
14966;BME280;7577;45.226;5.798;2023-04-06T09:57:45;99391.09;;;21.73;33.02
14966;BME280;7577;45.226;5.798;2023-04-06T10:00:20;99387.16;;;21.74;33.02
14966;BME280;7577;45.226;5.798;2023-04-06T10:02:54;99383.00;;;21.74;32.99
14966;BME280;7577;45.226;5.798;2023-04-06T10:05:29;99375.75;;;21.76;32.81
14966;BME280;7577;45.226;5.798;2023-04-06T10:08:01;99371.83;;;21.77;32.85
14966;BME280;7577;45.226;5.798;2023-04-06T10:10:31;99381.77;;;21.78;32.99
14966;BME280;7577;45.226;5.798;2023-04-06T10:13:02;99376.22;;;21.78;32.86
14966;BME280;7577;45.226;5.798;2023-04-06T10:15:32;99371.18;;;21.80;32.72
14966;BME280;7577;45.226;5.798;2023-04-06T10:18:04;99368.17;;;21.79;32.65
14966;BME280;7577;45.226;5.798;2023-04-06T10:20:39;99368.41;;;21.80;32.66
14966;BME280;7577;45.226;5.798;2023-04-06T10:25:54;99366.38;;;21.83;32.65
14966;BME280;7577;45.226;5.798;2023-04-06T10:28:25;99367.81;;;21.80;32.54
14966;BME280;7577;45.226;5.798;2023-04-06T10:33:37;99362.77;;;21.82;32.64
14966;BME280;7577;45.226;5.798;2023-04-06T10:36:22;99359.17;;;21.82;32.63
14966;BME280;7577;45.226;5.798;2023-04-06T10:38:53;99363.33;;;21.82;32.61
14966;BME280;7577;45.226;5.798;2023-04-06T10:41:18;99359.17;;;21.82;32.54
14966;BME280;7577;45.226;5.798;2023-04-06T10:43:55;99357.23;;;21.82;32.46
14966;BME280;7577;45.226;5.798;2023-04-06T10:49:12;99360.16;;;21.86;32.54
14966;BME280;7577;45.226;5.798;2023-04-06T10:51:42;99357.46;;;21.83;32.54
14966;BME280;7577;45.226;5.798;2023-04-06T10:54:12;99354.69;;;21.83;32.56
14966;BME280;7577;45.226;5.798;2023-04-06T10:56:43;99355.52;;;21.84;32.54
14966;BME280;7577;45.226;5.798;2023-04-06T11:01:52;99354.28;;;21.87;32.66
14966;BME280;7577;45.226;5.798;2023-04-06T11:04:24;99350.45;;;21.86;32.54
14966;BME280;7577;45.226;5.798;2023-04-06T11:06:54;99337.16;;;21.85;32.54
14966;BME280;7577;45.226;5.798;2023-04-06T11:09:27;99342.36;;;21.87;32.58
14966;BME280;7577;45.226;5.798;2023-04-06T11:11:58;99330.23;;;21.85;32.58
14966;BME280;7577;45.226;5.798;2023-04-06T11:14:29;99328.58;;;21.84;32.54
14966;BME280;7577;45.226;5.798;2023-04-06T11:16:59;99326.95;;;21.83;32.58
14966;BME280;7577;45.226;5.798;2023-04-06T11:19:30;99328.34;;;21.83;32.64
14966;BME280;7577;45.226;5.798;2023-04-06T11:24:45;99314.53;;;21.89;32.55
14966;BME280;7577;45.226;5.798;2023-04-06T11:27:18;99311.52;;;21.88;32.51
14966;BME280;7577;45.226;5.798;2023-04-06T11:29:49;99316.01;;;21.87;32.56
14966;BME280;7577;45.226;5.798;2023-04-06T11:32:23;99309.34;;;21.88;32.57
14966;BME280;7577;45.226;5.798;2023-04-06T11:34:53;99312.59;;;21.90;32.57
14966;BME280;7577;45.226;5.798;2023-04-06T11:40:09;99308.25;;;21.95;32.57
14966;BME280;7577;45.226;5.798;2023-04-06T11:42:39;99309.30;;;21.96;32.50
14966;BME280;7577;45.226;5.798;2023-04-06T11:45:12;99311.52;;;21.97;32.50
14966;BME280;7577;45.226;5.798;2023-04-06T11:47:43;99299.51;;;21.99;32.51
14966;BME280;7577;45.226;5.798;2023-04-06T11:50:14;99296.73;;;21.99;32.51
14966;BME280;7577;45.226;5.798;2023-04-06T11:52:45;99288.09;;;22.00;32.39
14966;BME280;7577;45.226;5.798;2023-04-06T11:55:17;99289.38;;;22.03;32.29
14966;BME280;7577;45.226;5.798;2023-04-06T11:57:47;99294.70;;;22.02;32.38
14966;BME280;7577;45.226;5.798;2023-04-06T12:00:20;99289.38;;;22.03;32.40
14966;BME280;7577;45.226;5.798;2023-04-06T12:02:50;99281.30;;;22.04;32.38
14966;BME280;7577;45.226;5.798;2023-04-06T12:05:20;99279.34;;;22.04;32.37
14966;BME280;7577;45.226;5.798;2023-04-06T12:07:51;99272.41;;;22.04;32.38
14966;BME280;7577;45.226;5.798;2023-04-06T12:10:22;99276.57;;;22.04;32.38
14966;BME280;7577;45.226;5.798;2023-04-06T12:12:52;99272.08;;;22.06;32.32
14966;BME280;7577;45.226;5.798;2023-04-06T12:15:22;99267.59;;;22.08;32.29
14966;BME280;7577;45.226;5.798;2023-04-06T12:17:52;99270.84;;;22.09;32.30
14966;BME280;7577;45.226;5.798;2023-04-06T12:20:22;99262.42;;;22.12;32.23
14966;BME280;7577;45.226;5.798;2023-04-06T12:25:30;99248.86;;;22.19;32.22
14966;BME280;7577;45.226;5.798;2023-04-06T12:28:00;99257.73;;;22.18;32.17
14966;BME280;7577;45.226;5.798;2023-04-06T12:30:30;99256.27;;;22.21;32.15
14966;BME280;7577;45.226;5.798;2023-04-06T12:33:01;99254.31;;;22.22;32.09
14966;BME280;7577;45.226;5.798;2023-04-06T12:35:33;99260.66;;;22.22;32.02
14966;BME280;7577;45.226;5.798;2023-04-06T12:38:04;99258.70;;;22.23;32.02
14966;BME280;7577;45.226;5.798;2023-04-06T12:40:38;99256.49;;;22.22;32.03
14966;BME280;7577;45.226;5.798;2023-04-06T12:43:08;99257.55;;;22.23;31.96
14966;BME280;7577;45.226;5.798;2023-04-06T12:45:38;99248.56;;;22.27;31.88
14966;BME280;7577;45.226;5.798;2023-04-06T12:48:10;99249.62;;;22.28;31.88
14966;BME280;7577;45.226;5.798;2023-04-06T12:50:40;99255.88;;;22.31;31.81
14966;BME280;7577;45.226;5.798;2023-04-06T12:53:10;99242.00;;;22.31;31.77
14966;BME280;7577;45.226;5.798;2023-04-06T12:55:41;99245.84;;;22.33;31.71
14966;BME280;7577;45.226;5.798;2023-04-06T12:58:11;99243.88;;;22.33;31.68
14966;BME280;7577;45.226;5.798;2023-04-06T13:00:41;99236.62;;;22.35;31.63
14966;BME280;7577;45.226;5.798;2023-04-06T13:03:11;99238.80;;;22.35;31.61
14966;BME280;7577;45.226;5.798;2023-04-06T13:05:45;99233.52;;;22.36;31.50
14966;BME280;7577;45.226;5.798;2023-04-06T13:08:17;99233.41;;;22.39;31.49
14966;BME280;7577;45.226;5.798;2023-04-06T13:10:49;99232.39;;;22.43;31.44
14966;BME280;7577;45.226;5.798;2023-04-06T13:13:22;99232.33;;;22.46;31.42
14966;BME280;7577;45.226;5.798;2023-04-06T13:15:53;99232.23;;;22.48;31.33
14966;BME280;7577;45.226;5.798;2023-04-06T13:18:25;99231.47;;;22.54;31.21
14966;BME280;7577;45.226;5.798;2023-04-06T13:20:56;99222.14;;;22.58;31.13
14966;BME280;7577;45.226;5.798;2023-04-06T13:26:08;99221.41;;;22.70;30.93
14966;BME280;7577;45.226;5.798;2023-04-06T13:28:38;99221.74;;;22.68;30.91
14966;BME280;7577;45.226;5.798;2023-04-06T13:31:08;99220.12;;;22.67;30.86
14966;BME280;7577;45.226;5.798;2023-04-06T13:33:39;99213.75;;;22.67;30.82
14966;BME280;7577;45.226;5.798;2023-04-06T13:36:09;99219.53;;;22.68;30.77
14966;BME280;7577;45.226;5.798;2023-04-06T13:41:22;99210.53;;;22.71;30.67
14966;BME280;7577;45.226;5.798;2023-04-06T13:43:53;99208.31;;;22.70;30.57
14966;BME280;7577;45.226;5.798;2023-04-06T13:46:25;99209.87;;;22.74;30.44
14966;BME280;7577;45.226;5.798;2023-04-06T13:48:56;99202.00;;;22.76;30.43
14966;BME280;7577;45.226;5.798;2023-04-06T13:51:26;99203.88;;;22.78;30.36
14966;BME280;7577;45.226;5.798;2023-04-06T13:56:34;99204.83;;;22.82;30.21
14966;BME280;7577;45.226;5.798;2023-04-06T13:59:05;99201.45;;;22.82;30.11
14966;BME280;7577;45.226;5.798;2023-04-06T14:04:12;99197.23;;;22.91;30.03
14966;BME280;7577;45.226;5.798;2023-04-06T14:06:44;99191.69;;;22.91;29.95
14966;BME280;7577;45.226;5.798;2023-04-06T14:09:14;99206.42;;;22.97;29.93
14966;BME280;7577;45.226;5.798;2023-04-06T14:11:44;99208.99;;;23.02;29.87
14966;BME280;7577;45.226;5.798;2023-04-06T14:14:14;99199.16;;;23.05;29.84
14966;BME280;7577;45.226;5.798;2023-04-06T14:19:22;99194.06;;;23.07;29.71
14966;BME280;7577;45.226;5.798;2023-04-06T14:21:53;99194.98;;;23.05;29.68
14966;BME280;7577;45.226;5.798;2023-04-06T14:27:01;99193.94;;;23.03;29.65
14966;BME280;7577;45.226;5.798;2023-04-06T14:29:31;99191.83;;;23.00;29.61
14966;BME280;7577;45.226;5.798;2023-04-06T14:32:01;99195.54;;;22.98;29.54
14966;BME280;7577;45.226;5.798;2023-04-06T14:37:11;99191.03;;;23.00;29.49
14966;BME280;7577;45.226;5.798;2023-04-06T14:39:41;99186.87;;;23.00;29.40
14966;BME280;7577;45.226;5.798;2023-04-06T14:44:49;99186.78;;;23.08;29.35
14966;BME280;7577;45.226;5.798;2023-04-06T14:49:59;99190.96;;;23.14;29.18
14966;BME280;7577;45.226;5.798;2023-04-06T14:52:29;99194.00;;;23.15;29.16
14966;BME280;7577;45.226;5.798;2023-04-06T14:54:59;99190.89;;;23.17;29.08
14966;BME280;7577;45.226;5.798;2023-04-06T14:57:29;99192.61;;;23.15;29.05
14966;BME280;7577;45.226;5.798;2023-04-06T14:59:59;99191.89;;;23.12;29.03
14966;BME280;7577;45.226;5.798;2023-04-06T15:02:29;99199.84;;;23.08;29.04
14966;BME280;7577;45.226;5.798;2023-04-06T15:05:00;99196.72;;;23.03;29.06
14966;BME280;7577;45.226;5.798;2023-04-06T15:07:32;99200.16;;;23.00;29.07
14966;BME280;7577;45.226;5.798;2023-04-06T15:10:02;99195.54;;;22.98;29.06
14966;BME280;7577;45.226;5.798;2023-04-06T15:15:14;99190.98;;;22.94;29.06
14966;BME280;7577;45.226;5.798;2023-04-06T15:20:22;99179.08;;;22.93;29.00
14966;BME280;7577;45.226;5.798;2023-04-06T15:22:52;99189.24;;;22.89;28.99
14966;BME280;7577;45.226;5.798;2023-04-06T15:28:00;99182.06;;;22.88;29.02
14966;BME280;7577;45.226;5.798;2023-04-06T15:33:08;99183.07;;;22.84;29.03
14966;BME280;7577;45.226;5.798;2023-04-06T15:35:38;99184.33;;;22.80;29.06
14966;BME280;7577;45.226;5.798;2023-04-06T15:38:11;99183.95;;;22.76;29.10
14966;BME280;7577;45.226;5.798;2023-04-06T15:40:44;99187.39;;;22.73;29.12
14966;BME280;7577;45.226;5.798;2023-04-06T15:45:58;99175.59;;;22.70;29.14
14966;BME280;7577;45.226;5.798;2023-04-06T15:48:29;99175.69;;;22.67;29.06
14966;BME280;7577;45.226;5.798;2023-04-06T15:51:00;99177.64;;;22.67;29.05
14966;BME280;7577;45.226;5.798;2023-04-06T15:53:30;99176.25;;;22.67;29.05
14966;BME280;7577;45.226;5.798;2023-04-06T15:56:01;99175.69;;;22.67;29.00
14966;BME280;7577;45.226;5.798;2023-04-06T15:58:33;99174.77;;;22.69;28.97
14966;BME280;7577;45.226;5.798;2023-04-06T16:01:12;99166.92;;;22.71;28.87
14966;BME280;7577;45.226;5.798;2023-04-06T16:03:43;99164.84;;;22.74;28.78
14966;BME280;7577;45.226;5.798;2023-04-06T16:06:13;99168.33;;;22.77;28.70
14966;BME280;7577;45.226;5.798;2023-04-06T16:08:44;99170.11;;;22.82;28.63
14966;BME280;7577;45.226;5.798;2023-04-06T16:11:14;99165.02;;;22.84;28.64